createdAt,value
2022-12-03T00:03:40.601Z,5.518394648829432
2022-12-03T00:10:10.786Z,4.816053511705686
2022-12-03T00:20:45.358Z,4.625418060200669
2022-12-03T00:34:45.147Z,5.525083612040134
2022-12-03T00:41:11.959Z,5.561872909698996
2022-12-03T00:47:39.241Z,4.063545150501672
2022-12-03T00:54:05.846Z,5.591973244147157
2022-12-03T01:00:33.081Z,4.7959866220735785
2022-12-03T01:07:01.994Z,4.976588628762542
2022-12-03T01:20:36.463Z,5.561872909698996
2022-12-03T01:31:14.817Z,5.79933110367893
2022-12-03T01:37:42.889Z,5.39799331103679
2022-12-03T01:44:12.199Z,5.1638795986622075
2022-12-03T01:54:00.365Z,6.712374581939799
2022-12-03T02:00:50.241Z,5.321070234113712
2022-12-03T02:13:17.547Z,6.197324414715719
2022-12-03T02:34:34.389Z,6.240802675585284
2022-12-03T02:45:30.212Z,7.869565217391305
2022-12-03T02:51:56.486Z,6.1237458193979935
2022-12-03T03:03:33.718Z,6.8561872909699
2022-12-03T03:10:00.511Z,6.187290969899665
2022-12-03T03:23:07.117Z,8.020066889632107
2022-12-03T03:33:03.310Z,8.842809364548495
2022-12-03T03:39:59.195Z,7.2040133779264215
2022-12-03T03:50:00.630Z,7.344481605351171
2022-12-03T03:58:26.039Z,7.434782608695652
2022-12-03T04:04:55.379Z,6.585284280936455
2022-12-03T04:11:24.928Z,7.381270903010034
2022-12-03T04:19:00.247Z,7.2441471571906355
2022-12-03T04:25:28.506Z,7.802675585284281
2022-12-03T04:31:56.145Z,7.862876254180602
2022-12-03T04:44:27.714Z,6.48494983277592
2022-12-03T04:51:59.602Z,8.240802675585284
2022-12-03T04:58:28.443Z,7.785953177257525
2022-12-03T05:08:48.389Z,8.588628762541806
2022-12-03T05:18:29.911Z,8.645484949832776
2022-12-03T05:29:28.643Z,7.6521739130434785
2022-12-03T05:41:58.206Z,9.167224080267559
2022-12-03T05:48:26.199Z,8.448160535117056
2022-12-03T05:54:56.829Z,9.05685618729097
2022-12-03T06:01:30.087Z,9.240802675585284
2022-12-03T06:22:42.161Z,8.531772575250836
2022-12-03T06:29:15.954Z,8.80267558528428
2022-12-03T06:35:47.964Z,8.822742474916389
2022-12-03T06:44:21.431Z,10.675585284280936
2022-12-03T06:57:12.778Z,8.963210702341136
2022-12-03T07:03:39.915Z,10.468227424749164
2022-12-03T07:10:45.456Z,10.207357859531772
2022-12-03T07:19:20.587Z,8.545150501672241
2022-12-03T07:26:04.895Z,10.77257525083612
2022-12-03T07:32:32.542Z,8.79598662207358
2022-12-03T07:39:00.437Z,9.608695652173912
2022-12-03T07:45:49.104Z,9.036789297658864
2022-12-03T07:52:17.696Z,9.277591973244148
2022-12-03T07:58:46.808Z,9.62541806020067
2022-12-03T08:07:31.306Z,10.31772575250836
2022-12-03T08:20:15.351Z,10.51505016722408
2022-12-03T08:28:08.172Z,10.692307692307692
2022-12-03T08:34:36.971Z,9.876254180602007
2022-12-03T08:48:33.088Z,8.37123745819398
2022-12-03T08:58:51.899Z,9.986622073578594
2022-12-03T09:11:23.815Z,9.939799331103679
2022-12-03T09:22:36.378Z,9.996655518394649
2022-12-03T09:29:11.861Z,9.789297658862877
2022-12-03T09:41:41.511Z,10.836120401337793
2022-12-03T09:50:27.532Z,10.214046822742475
2022-12-03T10:03:22.045Z,9.384615384615385
2022-12-03T10:13:54.643Z,8.709030100334449
2022-12-03T10:20:21.856Z,10.090301003344482
2022-12-03T10:28:55.049Z,10.578595317725753
2022-12-03T10:40:58.140Z,8.68561872909699
2022-12-03T10:59:44.433Z,9.250836120401338
2022-12-03T11:06:13.756Z,7.274247491638796
2022-12-03T11:12:42.803Z,7.528428093645485
2022-12-03T11:22:27.444Z,8.040133779264215
2022-12-03T11:28:54.638Z,7.7725752508361206
2022-12-03T11:35:23.087Z,8.270903010033445
2022-12-03T11:41:53.969Z,7.361204013377926
2022-12-03T11:49:05.063Z,7.568561872909699
2022-12-03T11:55:33.970Z,6.367892976588629
2022-12-03T12:03:25.650Z,6.411371237458194
2022-12-03T12:09:55.335Z,6.133779264214047
2022-12-03T12:16:25.860Z,5.545150501672241
2022-12-03T12:22:54.246Z,6.491638795986622
2022-12-03T12:29:22.814Z,6.632107023411371
2022-12-03T12:41:12.447Z,6.377926421404682
2022-12-03T12:53:16.222Z,6.591973244147157
2022-12-03T12:59:45.201Z,7.036789297658863
2022-12-03T13:06:13.123Z,6.421404682274248
2022-12-03T13:12:41.380Z,5.862876254180602
2022-12-03T13:26:58.877Z,6.494983277591973
2022-12-03T13:44:42.054Z,6.765886287625418
2022-12-03T13:51:13.115Z,6.464882943143813
2022-12-03T14:00:09.919Z,6.270903010033445
2022-12-03T14:09:08.089Z,6.762541806020067
2022-12-03T14:15:39.446Z,6.0
2022-12-03T14:30:15.984Z,6.959866220735786
2022-12-03T14:37:01.933Z,6.919732441471572
2022-12-03T14:43:48.081Z,6.311036789297659
2022-12-03T14:50:17.114Z,8.62541806020067
2022-12-03T14:56:47.257Z,6.491638795986622
2022-12-03T15:06:46.992Z,8.68561872909699
2022-12-03T15:13:15.289Z,7.849498327759197
2022-12-03T15:19:43.673Z,7.578595317725752
2022-12-03T15:28:21.835Z,8.762541806020067
2022-12-03T15:40:39.720Z,9.117056856187292
2022-12-03T15:53:46.698Z,9.765886287625419
2022-12-03T16:00:12.905Z,8.97324414715719
2022-12-03T16:09:49.167Z,9.14046822742475
2022-12-03T16:17:56.490Z,9.839464882943144
2022-12-03T16:31:40.618Z,10.565217391304348
2022-12-03T16:39:18.310Z,10.491638795986622
2022-12-03T16:45:45.576Z,10.26086956521739
2022-12-03T16:53:01.038Z,11.722408026755852
2022-12-03T16:59:28.557Z,9.698996655518394
2022-12-03T17:07:15.775Z,11.632107023411372
2022-12-03T17:13:43.305Z,10.03010033444816
2022-12-03T17:20:11.106Z,10.143812709030101
2022-12-03T17:26:38.742Z,11.063545150501673
2022-12-03T17:34:05.148Z,12.264214046822742
2022-12-03T17:43:49.456Z,10.451505016722408
2022-12-03T17:51:00.739Z,12.695652173913043
2022-12-03T18:02:38.416Z,11.926421404682275
2022-12-03T18:09:53.879Z,11.207357859531772
2022-12-03T18:18:34.118Z,12.765886287625419
2022-12-03T18:31:03.766Z,12.618729096989966
2022-12-03T18:41:36.628Z,10.612040133779264
2022-12-03T18:58:10.313Z,12.237458193979933
2022-12-03T19:04:41.895Z,12.424749163879598
2022-12-03T19:11:09.381Z,13.785953177257525
2022-12-03T19:18:20.918Z,13.665551839464882
2022-12-03T19:24:48.078Z,11.307692307692308
2022-12-03T19:36:30.450Z,10.79598662207358
2022-12-03T19:42:57.258Z,10.866220735785953
2022-12-03T19:49:24.553Z,13.244147157190636
2022-12-03T19:59:39.975Z,14.608695652173912
2022-12-03T20:10:50.626Z,13.648829431438127
2022-12-03T20:21:19.265Z,11.648829431438127
2022-12-03T20:32:31.499Z,10.063545150501673
2022-12-03T20:45:41.177Z,10.668896321070234
2022-12-03T20:52:09.324Z,8.953177257525084
2022-12-03T21:02:56.437Z,9.652173913043478
2022-12-03T21:09:26.250Z,11.7123745819398
2022-12-03T21:15:54.804Z,9.752508361204013
2022-12-03T21:49:26.606Z,11.762541806020067
2022-12-03T22:00:32.849Z,11.444816053511706
2022-12-03T22:07:00.305Z,11.321070234113712
2022-12-03T22:19:46.167Z,11.545150501672241
2022-12-03T22:26:13.509Z,12.33779264214047
2022-12-03T22:32:41.193Z,12.341137123745819
2022-12-03T22:39:08.320Z,11.642140468227424
2022-12-03T22:54:51.454Z,10.836120401337793
2022-12-03T23:01:18.682Z,12.003344481605351
2022-12-03T23:10:19.647Z,9.538461538461538
2022-12-03T23:17:45.173Z,9.438127090301004
2022-12-03T23:29:09.027Z,11.822742474916389
2022-12-03T23:35:37.333Z,10.418060200668897
2022-12-03T23:52:23.039Z,9.397993311036789
2022-12-03T23:58:52.802Z,12.193979933110368
